Time;durP1;ratioP1;P1;durP2;ratioP2;P2;SDS_P1;SDS_P2;PMS_P1;PMS_P2;Temp;Humidity;BMP_temperature;BMP_pressure;BME280_temperature;BME280_humidity;BME280_pressure;Samples;Min_cycle;Max_cycle;Signal;HPM_P1;HPM_P2
2022/05/03 00:01:30;;;;;;;12.32;10.65;;;13.20;99.90;;;;;;5053830;28;20040;-64
2022/05/03 00:04:04;;;;;;;13.68;11.10;;;13.20;99.90;;;;;;5054833;28;20123;-64
2022/05/03 00:06:54;;;;;;;13.25;9.90;;;13.10;99.90;;;;;;5053886;28;20048;-64
2022/05/03 00:09:54;;;;;;;14.55;11.02;;;13.00;99.90;;;;;;5036257;28;20453;-64
2022/05/03 00:12:25;;;;;;;12.35;9.82;;;12.90;99.90;;;;;;5069143;28;20044;-65
2022/05/03 00:14:56;;;;;;;11.88;9.50;;;12.80;99.90;;;;;;5052609;28;20045;-65
2022/05/03 00:17:23;;;;;;;10.55;9.55;;;12.70;99.90;;;;;;5052872;28;20040;-65
2022/05/03 00:19:51;;;;;;;13.38;11.10;;;12.70;99.90;;;;;;5052805;28;20067;-65
2022/05/03 00:22:19;;;;;;;11.63;9.88;;;12.60;99.90;;;;;;5052741;28;20057;-64
2022/05/03 00:24:46;;;;;;;14.15;10.82;;;12.60;99.90;;;;;;5052572;28;20073;-64
2022/05/03 00:27:13;;;;;;;12.52;10.30;;;12.50;99.90;;;;;;5052634;28;20041;-65
2022/05/03 00:29:40;;;;;;;11.55;9.38;;;12.40;99.90;;;;;;5052347;28;20048;-64
2022/05/03 00:32:08;;;;;;;10.35;9.27;;;12.30;99.90;;;;;;5053349;28;20052;-65
2022/05/03 00:34:34;;;;;;;15.68;10.88;;;12.20;99.90;;;;;;5052446;28;20464;-65
2022/05/03 00:37:01;;;;;;;13.45;10.38;;;12.20;99.90;;;;;;5052498;28;20468;-65
2022/05/03 00:39:28;;;;;;;13.15;11.15;;;12.10;99.90;;;;;;5054181;28;20049;-65
2022/05/03 00:42:09;;;;;;;11.18;9.57;;;12.00;99.90;;;;;;5052510;28;20041;-65
2022/05/03 00:45:08;;;;;;;12.75;9.95;;;11.90;99.90;;;;;;5052346;28;20052;-65
2022/05/03 00:48:04;;;;;;;12.55;9.88;;;11.80;99.90;;;;;;5051832;28;20037;-64
2022/05/03 00:50:37;;;;;;;13.52;10.90;;;11.70;99.90;;;;;;5051442;28;20068;-64
2022/05/03 00:53:17;;;;;;;11.60;9.75;;;11.70;99.90;;;;;;5054099;28;20045;-65
2022/05/03 00:55:49;;;;;;;13.57;11.35;;;11.60;99.90;;;;;;5053610;28;20041;-64
2022/05/03 00:58:44;;;;;;;12.48;9.65;;;11.50;99.90;;;;;;5054472;28;20052;-64
2022/05/03 01:01:34;;;;;;;11.63;9.68;;;11.50;99.90;;;;;;5055058;28;20099;-64
2022/05/03 01:04:31;;;;;;;10.77;9.68;;;11.40;99.90;;;;;;5054092;28;20048;-64
2022/05/03 01:07:47;;;;;;;13.60;10.20;;;11.30;99.90;;;;;;5053186;28;20217;-64
2022/05/03 01:10:20;;;;;;;13.90;10.23;;;11.30;99.90;;;;;;5051848;28;20055;-65
2022/05/03 01:13:07;;;;;;;13.80;10.85;;;11.20;99.90;;;;;;5055845;28;20041;-64
2022/05/03 01:15:38;;;;;;;12.70;10.13;;;11.20;99.90;;;;;;5056952;28;20094;-64
2022/05/03 01:18:24;;;;;;;15.50;11.80;;;11.20;99.90;;;;;;5058399;28;20053;-64
2022/05/03 01:21:12;;;;;;;14.57;11.82;;;11.20;99.90;;;;;;5055823;28;20484;-64
2022/05/03 01:24:04;;;;;;;13.32;10.52;;;11.20;99.90;;;;;;5057785;28;20052;-64
2022/05/03 01:26:53;;;;;;;13.80;12.10;;;11.20;99.90;;;;;;5057631;28;20053;-64
2022/05/03 01:29:25;;;;;;;17.63;12.48;;;11.20;99.90;;;;;;5056589;28;20053;-64
2022/05/03 01:31:56;;;;;;;14.68;11.65;;;11.20;99.90;;;;;;5056443;28;20049;-64
2022/05/03 01:34:24;;;;;;;11.80;10.23;;;11.20;99.90;;;;;;5056687;28;20052;-64
2022/05/03 01:37:11;;;;;;;13.45;10.45;;;11.30;99.90;;;;;;5055533;28;20472;-64
2022/05/03 01:39:54;;;;;;;12.77;10.88;;;11.30;99.90;;;;;;5040352;28;20496;-65
2022/05/03 01:42:39;;;;;;;12.30;9.95;;;11.30;99.90;;;;;;5056608;28;20055;-65
2022/05/03 01:45:10;;;;;;;13.05;10.40;;;11.30;99.90;;;;;;5055673;28;20476;-64
2022/05/03 01:47:59;;;;;;;13.82;10.35;;;11.30;99.90;;;;;;5056333;28;20048;-64
2022/05/03 01:51:09;;;;;;;13.73;11.05;;;11.30;99.90;;;;;;5057091;28;20403;-65
2022/05/03 01:53:40;;;;;;;14.48;11.15;;;11.30;99.90;;;;;;5055294;28;20046;-64
2022/05/03 01:56:25;;;;;;;15.23;11.70;;;11.30;99.90;;;;;;5039479;28;20049;-64
2022/05/03 01:59:23;;;;;;;11.98;10.57;;;11.40;99.90;;;;;;5057164;28;20041;-64
2022/05/03 02:02:14;;;;;;;12.48;10.68;;;11.40;99.90;;;;;;5056166;28;20128;-65
2022/05/03 02:05:00;;;;;;;12.25;10.38;;;11.50;99.90;;;;;;5055912;28;20049;-65
2022/05/03 02:07:33;;;;;;;13.48;10.70;;;11.50;99.90;;;;;;5056140;28;20045;-65
2022/05/03 02:10:06;;;;;;;12.15;10.77;;;11.50;99.90;;;;;;5055787;28;20057;-65
2022/05/03 02:12:33;;;;;;;14.95;11.70;;;11.50;99.90;;;;;;5055934;28;20045;-65
2022/05/03 02:15:10;;;;;;;14.82;11.60;;;11.50;99.90;;;;;;5054766;28;20049;-64
2022/05/03 02:17:44;;;;;;;14.20;10.20;;;11.50;99.90;;;;;;5039431;28;20051;-64
2022/05/03 02:20:58;;;;;;;12.40;10.73;;;11.50;99.90;;;;;;5054999;28;20166;-64
2022/05/03 02:23:40;;;;;;;13.05;10.77;;;11.60;99.90;;;;;;5054766;28;20044;-65
2022/05/03 02:26:31;;;;;;;12.63;9.70;;;11.50;99.90;;;;;;5056201;28;20053;-64
2022/05/03 02:29:00;;;;;;;14.00;11.30;;;11.60;99.90;;;;;;5055763;28;20037;-65
2022/05/03 02:31:51;;;;;;;16.10;10.52;;;11.60;99.90;;;;;;5055315;28;20048;-65
2022/05/03 02:34:43;;;;;;;13.27;10.55;;;11.50;99.90;;;;;;5054528;28;20049;-65
2022/05/03 02:37:16;;;;;;;15.25;12.52;;;11.60;99.90;;;;;;5055594;28;20059;-65
2022/05/03 02:39:51;;;;;;;14.82;12.65;;;11.60;99.90;;;;;;5054472;28;20049;-65
2022/05/03 02:42:20;;;;;;;15.50;11.57;;;11.60;99.90;;;;;;5055861;28;20460;-65
2022/05/03 02:44:47;;;;;;;17.35;12.35;;;11.60;99.90;;;;;;5054640;28;20099;-65
2022/05/03 02:47:50;;;;;;;17.27;12.35;;;11.70;99.90;;;;;;5054182;28;20373;-64
2022/05/03 02:50:21;;;;;;;17.17;12.98;;;11.70;99.90;;;;;;5053916;28;20492;-64
2022/05/03 02:52:53;;;;;;;17.70;13.32;;;11.70;99.90;;;;;;5055314;28;20056;-65
2022/05/03 02:55:21;;;;;;;14.63;12.77;;;11.70;99.90;;;;;;5054909;28;20094;-64
2022/05/03 02:57:56;;;;;;;16.40;14.10;;;11.70;99.90;;;;;;5054856;28;20041;-64
2022/05/03 03:03:32;;;;;;;15.02;11.85;;;11.70;99.90;;;;;;5055182;28;20072;-65
2022/05/03 03:05:59;;;;;;;17.50;15.25;;;11.70;99.90;;;;;;5056337;28;20041;-65
2022/05/03 03:08:28;;;;;;;20.52;14.02;;;11.70;99.90;;;;;;5054030;28;20041;-64
2022/05/03 03:11:02;;;;;;;18.25;14.25;;;11.60;99.90;;;;;;5055715;28;20091;-64
2022/05/03 03:13:29;;;;;;;18.45;14.98;;;11.50;99.90;;;;;;5054634;28;20056;-64
2022/05/03 03:15:56;;;;;;;17.90;15.35;;;11.60;99.90;;;;;;5055175;28;20108;-64
2022/05/03 03:18:24;;;;;;;20.17;14.80;;;11.50;99.90;;;;;;5054812;28;20055;-64
2022/05/03 03:20:56;;;;;;;16.85;14.15;;;11.50;99.90;;;;;;5053610;28;20049;-64
2022/05/03 03:23:30;;;;;;;23.33;14.82;;;11.50;99.90;;;;;;5055840;28;20071;-64
2022/05/03 03:25:58;;;;;;;20.60;15.85;;;11.50;99.90;;;;;;5055219;28;20464;-65
2022/05/03 03:28:24;;;;;;;19.23;14.27;;;11.50;99.90;;;;;;5053591;28;20037;-65
2022/05/03 03:30:52;;;;;;;19.10;15.25;;;11.50;99.90;;;;;;5053709;28;20052;-65
2022/05/03 03:33:19;;;;;;;19.25;14.30;;;11.50;99.90;;;;;;5054878;28;20052;-65
2022/05/03 03:35:46;;;;;;;20.20;14.95;;;11.50;99.90;;;;;;5054223;28;20087;-64
2022/05/03 03:38:13;;;;;;;19.10;15.68;;;11.40;99.90;;;;;;5054458;28;20045;-65
2022/05/03 03:40:40;;;;;;;18.13;14.63;;;11.40;99.90;;;;;;5054072;28;20048;-65
2022/05/03 03:43:07;;;;;;;20.88;16.13;;;11.40;99.90;;;;;;5037584;28;20053;-65
2022/05/03 03:45:34;;;;;;;19.27;16.20;;;11.40;99.90;;;;;;5053685;28;20036;-64
2022/05/03 03:48:01;;;;;;;18.23;14.40;;;11.40;99.90;;;;;;5053600;28;20060;-65
2022/05/03 03:50:28;;;;;;;18.60;14.63;;;11.40;99.90;;;;;;5055601;28;20037;-64
2022/05/03 03:52:56;;;;;;;18.63;15.18;;;11.50;99.90;;;;;;5053048;28;20610;-64
2022/05/03 03:55:23;;;;;;;22.48;14.63;;;11.50;99.90;;;;;;5036847;28;20067;-64
2022/05/03 03:57:50;;;;;;;21.15;14.32;;;11.50;99.90;;;;;;5052866;28;20477;-64
2022/05/03 04:00:17;;;;;;;18.98;15.75;;;11.50;99.90;;;;;;5053977;28;20049;-65
2022/05/03 04:02:45;;;;;;;17.48;14.45;;;11.50;99.90;;;;;;5036883;28;20087;-70
2022/05/03 04:05:17;;;;;;;19.85;15.88;;;11.50;99.90;;;;;;5053638;28;20128;-65
2022/05/03 04:07:44;;;;;;;20.02;16.77;;;11.40;99.90;;;;;;5054142;28;20044;-65
2022/05/03 04:10:11;;;;;;;17.83;15.55;;;11.40;99.90;;;;;;5053858;28;20037;-65
2022/05/03 04:12:38;;;;;;;18.65;16.08;;;11.40;99.90;;;;;;5053710;28;20048;-65
2022/05/03 04:15:06;;;;;;;19.85;16.70;;;11.40;99.90;;;;;;5054572;28;20094;-65
2022/05/03 04:17:38;;;;;;;19.77;16.27;;;11.40;99.90;;;;;;5054399;28;20471;-65
2022/05/03 04:20:06;;;;;;;17.88;16.00;;;11.30;99.90;;;;;;5053595;28;20114;-65
2022/05/03 04:22:33;;;;;;;19.00;16.38;;;11.30;99.90;;;;;;5053060;28;20055;-65
2022/05/03 04:25:01;;;;;;;20.25;16.80;;;11.30;99.90;;;;;;5053614;28;20506;-65
2022/05/03 04:27:28;;;;;;;22.20;16.48;;;11.30;99.90;;;;;;5052316;28;20052;-65
2022/05/03 04:29:56;;;;;;;20.08;15.13;;;11.20;99.90;;;;;;5036224;28;20044;-65
2022/05/03 04:32:23;;;;;;;21.92;16.95;;;11.20;99.90;;;;;;5052605;28;20049;-65
2022/05/03 04:34:50;;;;;;;20.80;16.55;;;11.20;99.90;;;;;;5053108;28;20210;-65
2022/05/03 04:37:17;;;;;;;22.13;16.42;;;11.20;99.90;;;;;;5052655;28;20464;-65
2022/05/03 04:39:43;;;;;;;18.55;15.57;;;11.30;99.90;;;;;;5054459;28;20049;-65
2022/05/03 04:42:11;;;;;;;20.40;15.57;;;11.30;99.90;;;;;;5053384;28;20041;-65
2022/05/03 04:44:38;;;;;;;19.90;16.42;;;11.30;99.90;;;;;;5052850;28;20048;-65
2022/05/03 04:47:05;;;;;;;19.02;16.77;;;11.30;99.90;;;;;;5052044;28;20052;-65
2022/05/03 04:49:32;;;;;;;20.40;16.23;;;11.30;99.90;;;;;;5054377;28;20052;-65
2022/05/03 04:51:59;;;;;;;20.55;16.13;;;11.30;99.90;;;;;;5052349;28;20051;-65
2022/05/03 04:54:26;;;;;;;20.15;15.77;;;11.30;99.90;;;;;;5052028;28;20063;-65
2022/05/03 04:56:55;;;;;;;21.98;18.90;;;11.30;99.90;;;;;;5051944;28;20041;-65
2022/05/03 04:59:22;;;;;;;22.65;17.42;;;11.30;99.90;;;;;;5052320;28;20110;-65
2022/05/03 05:01:49;;;;;;;20.15;16.52;;;11.30;99.90;;;;;;5053962;28;20045;-65
2022/05/03 05:04:15;;;;;;;23.17;18.27;;;11.30;99.90;;;;;;5053139;28;20053;-65
2022/05/03 05:06:42;;;;;;;22.42;18.65;;;11.30;99.90;;;;;;5053130;28;20059;-65
2022/05/03 05:09:09;;;;;;;26.83;19.60;;;11.30;99.90;;;;;;5036190;28;20052;-65
2022/05/03 05:11:36;;;;;;;24.60;19.63;;;11.20;99.90;;;;;;5054465;28;20045;-65
2022/05/03 05:14:03;;;;;;;25.27;18.98;;;11.20;99.90;;;;;;5054132;28;20064;-65
2022/05/03 05:16:30;;;;;;;26.20;18.88;;;11.20;99.90;;;;;;5053029;28;20488;-65
2022/05/03 05:18:57;;;;;;;31.50;26.20;;;11.30;99.90;;;;;;5052615;28;20041;-65
2022/05/03 05:21:24;;;;;;;28.90;21.55;;;11.30;99.90;;;;;;5052968;28;20041;-65
2022/05/03 05:23:51;;;;;;;29.88;21.42;;;11.30;99.90;;;;;;5052601;28;20103;-66
2022/05/03 05:26:18;;;;;;;25.48;19.80;;;11.30;99.90;;;;;;5051731;28;20051;-65
2022/05/03 05:28:45;;;;;;;26.00;20.83;;;11.30;99.90;;;;;;5053061;28;20045;-65
2022/05/03 05:31:12;;;;;;;26.58;21.55;;;11.40;99.90;;;;;;5053638;28;20049;-65
2022/05/03 05:33:38;;;;;;;27.67;21.67;;;11.30;99.90;;;;;;5053602;28;20091;-65
2022/05/03 05:36:06;;;;;;;29.70;22.27;;;11.40;99.90;;;;;;5051872;28;20052;-65
2022/05/03 05:38:33;;;;;;;29.70;22.92;;;11.40;99.90;;;;;;5053033;28;20049;-65
2022/05/03 05:40:59;;;;;;;31.83;22.98;;;11.40;99.90;;;;;;5053011;28;20048;-65
2022/05/03 05:43:26;;;;;;;28.88;20.58;;;11.40;99.90;;;;;;5052083;28;20049;-65
2022/05/03 05:45:53;;;;;;;31.67;23.10;;;11.40;99.90;;;;;;5053455;28;20045;-65
2022/05/03 05:48:20;;;;;;;32.22;25.00;;;11.40;99.90;;;;;;5051896;28;20056;-65
2022/05/03 05:50:47;;;;;;;32.70;24.10;;;11.50;99.90;;;;;;5053298;28;20040;-65
2022/05/03 05:53:32;;;;;;;31.58;24.85;;;11.50;99.90;;;;;;5053031;28;20170;-65
2022/05/03 05:56:03;;;;;;;35.72;25.63;;;11.50;99.90;;;;;;5052705;28;20041;-65
2022/05/03 05:58:31;;;;;;;32.78;24.58;;;11.50;99.90;;;;;;5056317;28;20140;-65
2022/05/03 06:00:58;;;;;;;35.33;26.05;;;11.50;99.90;;;;;;5055381;28;20461;-65
2022/05/03 06:03:26;;;;;;;32.20;24.02;;;11.50;99.90;;;;;;5055503;28;20052;-65
2022/05/03 06:05:52;;;;;;;36.80;26.00;;;11.50;99.90;;;;;;5056569;28;20045;-67
2022/05/03 06:08:19;;;;;;;62.80;47.40;;;11.50;99.90;;;;;;5055294;28;20063;-65
2022/05/03 06:10:49;;;;;;;281.40;233.15;;;11.60;99.90;;;;;;5056123;28;20048;-69
2022/05/03 06:13:16;;;;;;;57.42;47.00;;;11.60;99.90;;;;;;5056368;28;20052;-65
2022/05/03 06:15:43;;;;;;;41.35;30.13;;;11.70;99.90;;;;;;5039327;28;20052;-65
2022/05/03 06:18:11;;;;;;;38.47;27.00;;;11.70;99.90;;;;;;5055150;28;20051;-71
2022/05/03 06:20:38;;;;;;;36.30;28.17;;;11.70;99.90;;;;;;5055085;28;20373;-72
2022/05/03 06:23:11;;;;;;;39.28;27.85;;;11.80;99.90;;;;;;5057129;28;20106;-72
2022/05/03 06:25:38;;;;;;;39.63;30.20;;;11.80;99.90;;;;;;5056645;28;20051;-69
2022/05/03 06:28:05;;;;;;;44.70;29.35;;;11.70;99.90;;;;;;5056589;28;20041;-63
2022/05/03 06:30:32;;;;;;;40.05;27.48;;;11.80;99.90;;;;;;5055611;28;20099;-64
2022/05/03 06:32:59;;;;;;;38.80;28.20;;;11.80;99.90;;;;;;5054624;28;20041;-67
2022/05/03 06:35:28;;;;;;;41.03;30.67;;;11.90;99.90;;;;;;5055859;28;20465;-66
2022/05/03 06:37:55;;;;;;;45.53;30.67;;;11.90;99.90;;;;;;5055494;28;20087;-70
2022/05/03 06:40:22;;;;;;;41.92;28.38;;;11.90;99.90;;;;;;5054647;28;20547;-78
2022/05/03 06:42:50;;;;;;;483.50;405.77;;;11.90;99.90;;;;;;5055090;28;20080;-69
2022/05/03 06:45:18;;;;;;;78.97;64.13;;;12.00;99.90;;;;;;5055514;28;20049;-75
2022/05/03 06:47:45;;;;;;;46.55;33.63;;;12.00;99.90;;;;;;5053964;28;20057;-70
2022/05/03 06:50:12;;;;;;;45.00;31.17;;;12.00;99.90;;;;;;5056809;28;20139;-68
2022/05/03 06:52:39;;;;;;;39.42;29.45;;;11.90;99.90;;;;;;5054486;28;20045;-69
2022/05/03 06:55:06;;;;;;;38.75;27.17;;;12.00;99.90;;;;;;5056062;28;20048;-69
2022/05/03 06:57:33;;;;;;;39.90;28.40;;;12.00;99.90;;;;;;5054269;28;20119;-69
2022/05/03 07:00:02;;;;;;;37.88;26.75;;;12.00;99.90;;;;;;5054192;28;20051;-70
2022/05/03 07:02:31;;;;;;;40.22;25.58;;;12.00;99.90;;;;;;5055933;28;20472;-70
2022/05/03 07:04:59;;;;;;;36.20;26.80;;;11.90;99.90;;;;;;5053992;28;20132;-71
2022/05/03 07:07:29;;;;;;;37.08;24.77;;;12.00;99.90;;;;;;5037312;28;20041;-71
2022/05/03 07:09:56;;;;;;;39.58;26.80;;;12.00;99.90;;;;;;5036996;28;20060;-71
2022/05/03 07:12:23;;;;;;;38.67;27.02;;;12.00;99.90;;;;;;5054063;28;20120;-70
2022/05/03 07:14:50;;;;;;;35.63;27.08;;;12.00;99.90;;;;;;5055254;28;20385;-69
2022/05/03 07:22:50;;;;;;;36.47;23.40;;;12.10;99.90;;;;;;5055556;28;20341;-70
2022/05/03 07:25:17;;;;;;;32.08;23.52;;;12.20;99.90;;;;;;5054625;28;20045;-70
2022/05/03 07:27:48;;;;;;;34.13;24.02;;;12.20;99.90;;;;;;5054950;28;20041;-70
2022/05/03 07:30:15;;;;;;;29.80;22.33;;;12.20;99.90;;;;;;5055369;28;20045;-69
2022/05/03 07:32:45;;;;;;;35.53;24.52;;;12.20;99.90;;;;;;5053337;28;20511;-73
2022/05/03 07:35:12;;;;;;;33.08;23.70;;;12.30;99.90;;;;;;5053237;28;20059;-69
2022/05/03 07:37:39;;;;;;;33.03;24.25;;;12.30;99.90;;;;;;5055247;28;20065;-70
2022/05/03 07:40:08;;;;;;;141.10;110.68;;;12.30;99.90;;;;;;5053110;28;20499;-71
2022/05/03 07:42:34;;;;;;;32.80;24.35;;;12.30;99.90;;;;;;5053333;28;20059;-72
2022/05/03 07:45:01;;;;;;;28.60;21.13;;;12.30;99.90;;;;;;5055106;28;20068;-70
2022/05/03 07:47:28;;;;;;;31.25;21.77;;;12.40;99.90;;;;;;5055067;28;20051;-71
2022/05/03 07:49:55;;;;;;;29.95;20.83;;;12.50;99.90;;;;;;5054772;28;20453;-70
2022/05/03 07:52:22;;;;;;;25.27;18.63;;;12.40;99.90;;;;;;5054447;28;20067;-70
2022/05/03 07:54:49;;;;;;;27.17;19.45;;;12.50;99.90;;;;;;5054715;28;20369;-70
2022/05/03 07:57:16;;;;;;;26.98;19.63;;;12.50;99.90;;;;;;5054116;28;20137;-70
2022/05/03 07:59:43;;;;;;;31.92;21.15;;;12.50;99.90;;;;;;5036774;28;20364;-69
2022/05/03 08:02:10;;;;;;;35.25;20.48;;;12.50;99.90;;;;;;5053991;28;20051;-69
2022/05/03 08:04:39;;;;;;;35.10;21.02;;;12.50;99.90;;;;;;5054490;28;20453;-69
2022/05/03 08:07:06;;;;;;;33.50;22.92;;;12.50;99.90;;;;;;5052704;28;20045;-71
2022/05/03 08:09:34;;;;;;;37.25;24.35;;;12.50;99.90;;;;;;5054135;28;20045;-71
2022/05/03 08:12:03;;;;;;;43.50;23.90;;;12.50;99.90;;;;;;5053356;28;20051;-71
2022/05/03 08:14:30;;;;;;;35.83;22.58;;;12.50;99.90;;;;;;5053635;28;20037;-69
2022/05/03 08:17:00;;;;;;;34.08;21.67;;;12.60;99.90;;;;;;5054217;28;20098;-71
2022/05/03 08:19:27;;;;;;;35.78;22.92;;;12.60;99.90;;;;;;5036634;28;20049;-67
2022/05/03 08:21:56;;;;;;;39.55;26.05;;;12.50;99.90;;;;;;5054009;28;20047;-69
2022/05/03 08:24:24;;;;;;;41.65;26.42;;;12.50;99.90;;;;;;5053628;28;20048;-74
2022/05/03 08:26:51;;;;;;;39.72;26.40;;;12.40;99.90;;;;;;5053551;28;20041;-75
2022/05/03 08:29:19;;;;;;;43.67;26.17;;;12.50;99.90;;;;;;5052644;28;20040;-81
2022/05/03 08:31:45;;;;;;;46.63;24.48;;;12.50;99.90;;;;;;5053492;28;20063;-80
2022/05/03 08:34:13;;;;;;;50.22;25.08;;;12.60;99.90;;;;;;5052807;28;20049;-80
2022/05/03 08:36:40;;;;;;;39.50;26.52;;;12.60;99.90;;;;;;5052639;28;20044;-80
2022/05/03 08:42:07;;;;;;;41.97;25.95;;;12.50;99.90;;;;;;5054727;28;20044;-80
2022/05/03 08:44:34;;;;;;;42.53;25.00;;;12.60;99.90;;;;;;5054299;28;20132;-80
2022/05/03 08:47:05;;;;;;;45.17;25.05;;;12.70;99.90;;;;;;5052375;28;20048;-81
2022/05/03 08:49:42;;;;;;;38.20;25.52;;;12.70;99.90;;;;;;5036308;28;20063;-81
2022/05/03 08:52:09;;;;;;;42.50;24.27;;;12.80;99.90;;;;;;5054702;28;20041;-81
2022/05/03 08:54:37;;;;;;;35.58;22.83;;;12.80;99.90;;;;;;5054084;28;20044;-81
2022/05/03 08:57:07;;;;;;;41.92;25.17;;;12.90;99.90;;;;;;5052587;28;20048;-80
2022/05/03 08:59:34;;;;;;;41.25;25.90;;;12.90;99.90;;;;;;5052470;28;20059;-79
2022/05/03 09:02:02;;;;;;;40.00;25.02;;;12.80;99.90;;;;;;5053182;28;20056;-80
2022/05/03 09:04:29;;;;;;;41.35;24.85;;;12.90;99.90;;;;;;5053855;28;20091;-79
2022/05/03 09:06:56;;;;;;;42.25;25.75;;;12.90;99.90;;;;;;5051833;28;20041;-80
2022/05/03 09:09:23;;;;;;;53.60;28.02;;;12.90;99.90;;;;;;5052156;28;20037;-80
2022/05/03 09:11:51;;;;;;;43.90;27.08;;;12.90;99.90;;;;;;5053323;28;20045;-81
2022/05/03 09:14:35;;;;;;;47.75;26.75;;;12.80;99.90;;;;;;5052128;28;20045;-82
2022/05/03 09:17:02;;;;;;;42.53;25.75;;;12.80;99.90;;;;;;5052171;28;20044;-81
2022/05/03 09:19:29;;;;;;;40.60;25.33;;;12.70;99.90;;;;;;5035486;28;20126;-81
2022/05/03 09:25:06;;;;;;;43.25;26.40;;;12.70;99.90;;;;;;5054140;28;20045;-80
2022/05/03 09:27:34;;;;;;;39.35;24.48;;;12.70;99.90;;;;;;5052798;28;20041;-81
2022/05/03 09:30:09;;;;;;;42.42;23.92;;;12.80;99.90;;;;;;5051648;28;20522;-81
2022/05/03 09:32:43;;;;;;;38.42;22.90;;;12.70;99.90;;;;;;5054341;28;20369;-80
2022/05/03 09:35:30;;;;;;;38.30;23.45;;;12.70;99.90;;;;;;5039264;28;20567;-81
2022/05/03 09:37:57;;;;;;;41.83;23.65;;;12.60;99.90;;;;;;5056377;28;20045;-80
2022/05/03 09:40:25;;;;;;;42.05;24.17;;;12.60;99.90;;;;;;5057032;28;20045;-80
2022/05/03 09:42:53;;;;;;;35.15;21.85;;;12.60;99.90;;;;;;5055813;28;20052;-80
2022/05/03 09:45:24;;;;;;;37.38;23.85;;;12.60;99.90;;;;;;5056711;28;20472;-81
2022/05/03 09:47:56;;;;;;;38.65;23.58;;;12.70;99.90;;;;;;5055723;28;20156;-80
2022/05/03 09:50:27;;;;;;;40.67;22.05;;;12.60;99.90;;;;;;5055610;28;20112;-80
2022/05/03 09:52:55;;;;;;;32.33;19.80;;;12.70;99.90;;;;;;5056569;28;20056;-81
2022/05/03 09:55:30;;;;;;;38.17;22.42;;;12.80;99.90;;;;;;5055653;28;20461;-80
2022/05/03 09:58:01;;;;;;;29.08;18.13;;;13.00;99.90;;;;;;5055518;28;20044;-80
2022/05/03 10:00:28;;;;;;;24.90;17.95;;;13.10;99.90;;;;;;5055696;28;20480;-77
2022/05/03 10:02:55;;;;;;;32.80;16.45;;;13.30;99.90;;;;;;5055619;28;20045;-76
2022/05/03 10:05:22;;;;;;;25.10;16.10;;;13.40;99.90;;;;;;5055158;28;20045;-76
2022/05/03 10:07:50;;;;;;;23.67;17.00;;;13.60;99.90;;;;;;5054976;28;20053;-77
2022/05/03 10:10:17;;;;;;;21.88;16.67;;;13.90;99.90;;;;;;5056884;28;20047;-77
2022/05/03 10:12:44;;;;;;;24.50;18.10;;;14.10;99.90;;;;;;5055923;28;20124;-78
2022/05/03 10:15:11;;;;;;;21.23;15.02;;;14.30;99.90;;;;;;5055244;28;20044;-78
2022/05/03 10:20:37;;;;;;;22.27;15.00;;;14.40;99.90;;;;;;5055041;28;20041;-78
2022/05/03 10:23:23;;;;;;;23.38;15.55;;;14.30;99.90;;;;;;5055392;28;20049;-77
2022/05/03 10:25:55;;;;;;;26.58;18.35;;;14.30;99.90;;;;;;5056662;28;20077;-77
2022/05/03 10:28:22;;;;;;;27.90;17.95;;;14.20;99.90;;;;;;5055065;28;20056;-77
2022/05/03 10:31:04;;;;;;;28.48;19.25;;;14.10;99.90;;;;;;5054677;28;20044;-77
2022/05/03 10:33:31;;;;;;;25.02;16.73;;;14.10;99.90;;;;;;5056250;28;20048;-77
2022/05/03 10:36:00;;;;;;;29.95;17.63;;;14.20;99.90;;;;;;5055007;28;20056;-77
2022/05/03 10:38:46;;;;;;;27.67;21.05;;;14.10;99.90;;;;;;5055179;28;20472;-77
2022/05/03 10:41:22;;;;;;;32.10;20.80;;;14.10;99.90;;;;;;5054570;28;20045;-77
2022/05/03 10:43:49;;;;;;;29.40;19.30;;;14.00;99.90;;;;;;5037512;28;20041;-78
2022/05/03 10:46:21;;;;;;;28.38;19.08;;;14.10;99.90;;;;;;5056616;28;20045;-77
2022/05/03 10:49:11;;;;;;;33.60;20.35;;;14.00;99.90;;;;;;5054219;28;20366;-72
2022/05/03 10:51:38;;;;;;;32.35;19.70;;;14.00;99.90;;;;;;5054332;28;20045;-72
2022/05/03 10:54:06;;;;;;;97.38;71.65;;;14.00;99.90;;;;;;5054993;28;20040;-73
2022/05/03 10:56:33;;;;;;;41.78;29.08;;;13.90;99.90;;;;;;5055913;28;20472;-68
2022/05/03 10:59:06;;;;;;;26.23;21.73;;;13.80;99.90;;;;;;5055586;28;20049;-73
2022/05/03 11:01:55;;;;;;;26.02;21.23;;;13.80;99.90;;;;;;5054031;28;20049;-67
2022/05/03 11:04:25;;;;;;;28.33;21.38;;;13.70;99.90;;;;;;5054787;28;20052;-73
2022/05/03 11:06:52;;;;;;;29.48;20.08;;;13.80;99.90;;;;;;5054216;28;20049;-70
2022/05/03 11:09:32;;;;;;;37.08;23.20;;;13.90;99.90;;;;;;5037821;28;20045;-65
2022/05/03 11:12:04;;;;;;;32.17;21.70;;;13.90;99.90;;;;;;5054167;28;20059;-69
2022/05/03 11:14:31;;;;;;;33.60;23.55;;;14.00;99.90;;;;;;5054140;28;20461;-71
2022/05/03 11:17:10;;;;;;;32.05;22.00;;;14.10;99.90;;;;;;5055392;28;20037;-68
2022/05/03 11:19:49;;;;;;;27.98;21.10;;;14.10;99.90;;;;;;5054945;28;20045;-69
2022/05/03 11:22:22;;;;;;;31.75;20.98;;;14.30;99.90;;;;;;5039043;28;20364;-70
2022/05/03 11:24:51;;;;;;;34.83;24.60;;;14.30;99.90;;;;;;5053986;28;20060;-72
2022/05/03 11:27:18;;;;;;;31.17;22.58;;;14.40;99.90;;;;;;5055844;28;20052;-72
2022/05/03 11:30:10;;;;;;;31.67;23.88;;;14.40;99.90;;;;;;5053993;28;20087;-75
2022/05/03 11:32:39;;;;;;;40.78;25.35;;;14.30;99.90;;;;;;5054698;28;20127;-74
2022/05/03 11:35:07;;;;;;;35.60;23.73;;;14.30;99.90;;;;;;5037333;28;20048;-69
2022/05/03 11:37:34;;;;;;;44.92;25.23;;;14.30;99.90;;;;;;5053262;28;20041;-74
2022/05/03 11:40:07;;;;;;;39.85;24.45;;;14.30;99.90;;;;;;5054363;28;20080;-71
2022/05/03 11:42:38;;;;;;;36.80;25.23;;;14.20;99.90;;;;;;5053795;28;20063;-74
2022/05/03 11:45:06;;;;;;;36.47;24.55;;;14.40;99.90;;;;;;5054763;28;20047;-69
2022/05/03 11:47:35;;;;;;;32.58;23.08;;;14.30;99.90;;;;;;5053998;28;20048;-74
2022/05/03 11:50:03;;;;;;;35.25;25.50;;;14.30;99.90;;;;;;5054973;28;20084;-74
2022/05/03 11:58:00;;;;;;;155.15;121.65;;;14.20;99.90;;;;;;5055513;28;20045;-71
2022/05/03 12:00:28;;;;;;;39.50;30.55;;;14.10;99.90;;;;;;5053011;28;20047;-74
2022/05/03 12:02:59;;;;;;;68.40;47.33;;;14.30;99.90;;;;;;5037175;28;20048;-75
2022/05/03 12:05:26;;;;;;;38.97;27.60;;;14.30;99.90;;;;;;5052804;28;20492;-73
2022/05/03 12:07:56;;;;;;;37.67;25.25;;;14.20;99.90;;;;;;5053047;28;20049;-73
2022/05/03 12:10:29;;;;;;;36.05;22.98;;;14.20;99.90;;;;;;5054929;28;20045;-73
2022/05/03 12:13:08;;;;;;;32.15;22.23;;;14.10;99.90;;;;;;5036238;28;20045;-72
2022/05/03 12:15:42;;;;;;;32.30;21.85;;;14.00;99.90;;;;;;5054151;28;20045;-72
2022/05/03 12:18:16;;;;;;;24.60;19.40;;;14.10;99.90;;;;;;5052963;28;20361;-72
2022/05/03 12:20:44;;;;;;;32.95;22.25;;;14.10;99.90;;;;;;5052887;28;20052;-72
2022/05/03 12:23:19;;;;;;;35.67;21.52;;;14.20;99.90;;;;;;5052836;28;20041;-71
2022/05/03 12:25:54;;;;;;;35.17;21.23;;;14.20;99.90;;;;;;5036468;28;20045;-73
2022/05/03 12:28:33;;;;;;;100.45;70.90;;;14.10;99.90;;;;;;5053034;28;20052;-78
2022/05/03 12:31:02;;;;;;;;;;;14.10;99.90;;;;;;5053752;28;20044;-75
2022/05/03 12:33:29;;;;;;;34.88;28.27;;;14.10;99.90;;;;;;5053559;28;19923;-75
2022/05/03 12:35:56;;;;;;;36.83;23.40;;;14.10;99.90;;;;;;5053723;28;20048;-74
2022/05/03 12:38:24;;;;;;;31.40;22.08;;;14.10;99.90;;;;;;5053896;28;20049;-75
2022/05/03 12:40:53;;;;;;;39.28;22.60;;;14.00;99.90;;;;;;5052360;28;20048;-76
2022/05/03 12:43:23;;;;;;;34.45;24.25;;;13.90;99.90;;;;;;5053261;28;20041;-78
2022/05/03 12:45:57;;;;;;;38.72;25.92;;;13.80;99.90;;;;;;5052943;28;20449;-74
2022/05/03 12:48:29;;;;;;;37.97;26.17;;;13.80;99.90;;;;;;5036530;28;20102;-74
2022/05/03 12:50:56;;;;;;;32.88;23.20;;;13.80;99.90;;;;;;5052151;28;20037;-73
2022/05/03 12:53:31;;;;;;;30.08;23.42;;;13.70;99.90;;;;;;5052046;28;20049;-74
2022/05/03 12:58:21;;;;;;;39.40;26.85;;;13.70;99.90;;;;;;5052245;28;20044;-72
2022/05/03 12:58:45;;;;;;;33.88;24.08;;;13.70;99.90;;;;;;5053292;28;20048;-74
2022/05/03 13:01:15;;;;;;;31.77;22.88;;;13.80;99.90;;;;;;5053046;28;20075;-71
2022/05/03 13:03:42;;;;;;;37.95;23.95;;;13.80;99.90;;;;;;5052164;28;20052;-72
2022/05/03 13:06:08;;;;;;;39.50;26.42;;;13.70;99.90;;;;;;5052753;28;20045;-72
2022/05/03 13:08:35;;;;;;;35.58;25.52;;;13.70;99.90;;;;;;5053463;28;20044;-80
2022/05/03 13:11:02;;;;;;;46.17;32.33;;;13.80;99.90;;;;;;5053630;28;20048;-73
2022/05/03 13:13:29;;;;;;;37.58;23.80;;;13.90;99.90;;;;;;5052103;28;20396;-70